sensor_id;sensor_type;location;lat;lon;timestamp;temperature;humidity
21592;DHT22;10958;50.892;3.992;2023-04-25T00:01:46;10.50;99.90
21592;DHT22;10958;50.892;3.992;2023-04-25T00:04:12;10.30;99.90
21592;DHT22;10958;50.892;3.992;2023-04-25T00:09:15;10.00;99.90
21592;DHT22;10958;50.892;3.992;2023-04-25T00:11:41;10.10;99.90
21592;DHT22;10958;50.892;3.992;2023-04-25T00:14:06;10.10;99.90
21592;DHT22;10958;50.892;3.992;2023-04-25T00:16:35;10.30;99.90
21592;DHT22;10958;50.892;3.992;2023-04-25T00:19:04;10.30;99.90
21592;DHT22;10958;50.892;3.992;2023-04-25T00:21:30;10.30;99.90
21592;DHT22;10958;50.892;3.992;2023-04-25T00:23:57;10.50;99.90
21592;DHT22;10958;50.892;3.992;2023-04-25T00:26:22;10.50;99.90
21592;DHT22;10958;50.892;3.992;2023-04-25T00:28:48;10.50;99.90
21592;DHT22;10958;50.892;3.992;2023-04-25T00:31:14;10.30;99.90
21592;DHT22;10958;50.892;3.992;2023-04-25T00:33:40;10.20;99.90
21592;DHT22;10958;50.892;3.992;2023-04-25T00:36:08;10.10;99.90
21592;DHT22;10958;50.892;3.992;2023-04-25T00:38:34;10.20;99.90
21592;DHT22;10958;50.892;3.992;2023-04-25T00:41:00;10.30;99.90
21592;DHT22;10958;50.892;3.992;2023-04-25T00:43:26;10.30;99.90
21592;DHT22;10958;50.892;3.992;2023-04-25T00:45:53;10.20;99.90
21592;DHT22;10958;50.892;3.992;2023-04-25T00:48:22;10.00;99.90
21592;DHT22;10958;50.892;3.992;2023-04-25T00:50:55;9.70;99.90
21592;DHT22;10958;50.892;3.992;2023-04-25T00:53:26;9.60;99.90
21592;DHT22;10958;50.892;3.992;2023-04-25T00:55:55;9.40;99.90
21592;DHT22;10958;50.892;3.992;2023-04-25T00:58:21;9.30;99.90
21592;DHT22;10958;50.892;3.992;2023-04-25T01:00:48;9.20;99.90
21592;DHT22;10958;50.892;3.992;2023-04-25T01:03:17;9.20;99.90
21592;DHT22;10958;50.892;3.992;2023-04-25T01:05:45;9.20;99.90
21592;DHT22;10958;50.892;3.992;2023-04-25T01:08:12;9.30;99.90
21592;DHT22;10958;50.892;3.992;2023-04-25T01:10:39;9.20;99.90
21592;DHT22;10958;50.892;3.992;2023-04-25T01:13:05;9.30;99.90
21592;DHT22;10958;50.892;3.992;2023-04-25T01:15:31;9.20;99.90
21592;DHT22;10958;50.892;3.992;2023-04-25T01:17:57;9.30;99.90
21592;DHT22;10958;50.892;3.992;2023-04-25T01:20:24;9.30;99.90
21592;DHT22;10958;50.892;3.992;2023-04-25T01:22:53;9.20;99.90
21592;DHT22;10958;50.892;3.992;2023-04-25T01:25:20;9.30;99.90
21592;DHT22;10958;50.892;3.992;2023-04-25T01:27:47;9.30;99.90
21592;DHT22;10958;50.892;3.992;2023-04-25T01:30:13;9.30;99.90
21592;DHT22;10958;50.892;3.992;2023-04-25T01:32:42;9.20;99.90
21592;DHT22;10958;50.892;3.992;2023-04-25T01:35:11;9.30;99.90
21592;DHT22;10958;50.892;3.992;2023-04-25T01:37:41;9.30;99.90
21592;DHT22;10958;50.892;3.992;2023-04-25T01:40:12;9.30;99.90
21592;DHT22;10958;50.892;3.992;2023-04-25T01:42:39;9.20;99.90
21592;DHT22;10958;50.892;3.992;2023-04-25T01:45:06;9.20;99.90
21592;DHT22;10958;50.892;3.992;2023-04-25T01:47:33;9.20;99.90
21592;DHT22;10958;50.892;3.992;2023-04-25T01:50:03;9.30;99.90
21592;DHT22;10958;50.892;3.992;2023-04-25T01:52:29;9.20;99.90
21592;DHT22;10958;50.892;3.992;2023-04-25T01:54:57;9.10;99.90
21592;DHT22;10958;50.892;3.992;2023-04-25T01:57:23;9.00;99.90
21592;DHT22;10958;50.892;3.992;2023-04-25T01:59:49;8.90;99.90
21592;DHT22;10958;50.892;3.992;2023-04-25T02:02:17;9.00;99.90
21592;DHT22;10958;50.892;3.992;2023-04-25T02:04:43;9.10;99.90
21592;DHT22;10958;50.892;3.992;2023-04-25T02:07:08;9.10;99.90
21592;DHT22;10958;50.892;3.992;2023-04-25T02:09:34;9.00;99.90
21592;DHT22;10958;50.892;3.992;2023-04-25T02:12:00;9.00;99.90
21592;DHT22;10958;50.892;3.992;2023-04-25T02:14:27;9.00;99.90
21592;DHT22;10958;50.892;3.992;2023-04-25T02:16:54;9.00;99.90
21592;DHT22;10958;50.892;3.992;2023-04-25T02:19:22;9.10;99.90
21592;DHT22;10958;50.892;3.992;2023-04-25T02:21:47;9.20;99.90
21592;DHT22;10958;50.892;3.992;2023-04-25T02:24:13;9.10;99.90
21592;DHT22;10958;50.892;3.992;2023-04-25T02:26:39;9.00;99.90
21592;DHT22;10958;50.892;3.992;2023-04-25T02:29:04;9.00;99.90
21592;DHT22;10958;50.892;3.992;2023-04-25T02:31:31;9.10;99.90
21592;DHT22;10958;50.892;3.992;2023-04-25T02:33:56;9.20;99.90
21592;DHT22;10958;50.892;3.992;2023-04-25T02:36:25;9.10;99.90
21592;DHT22;10958;50.892;3.992;2023-04-25T02:38:51;9.10;99.90
21592;DHT22;10958;50.892;3.992;2023-04-25T02:41:19;8.90;99.90
21592;DHT22;10958;50.892;3.992;2023-04-25T02:43:46;8.90;99.90
21592;DHT22;10958;50.892;3.992;2023-04-25T02:46:11;8.80;99.90
21592;DHT22;10958;50.892;3.992;2023-04-25T02:48:37;8.50;99.90
21592;DHT22;10958;50.892;3.992;2023-04-25T02:51:03;8.60;99.90
21592;DHT22;10958;50.892;3.992;2023-04-25T02:53:28;8.50;99.90
21592;DHT22;10958;50.892;3.992;2023-04-25T02:55:57;8.40;99.90
21592;DHT22;10958;50.892;3.992;2023-04-25T02:58:24;8.40;99.90
21592;DHT22;10958;50.892;3.992;2023-04-25T03:00:53;8.40;99.90
21592;DHT22;10958;50.892;3.992;2023-04-25T03:03:21;8.20;99.90
21592;DHT22;10958;50.892;3.992;2023-04-25T03:05:49;8.20;99.90
21592;DHT22;10958;50.892;3.992;2023-04-25T03:08:18;8.10;99.90
21592;DHT22;10958;50.892;3.992;2023-04-25T03:10:44;8.00;99.90
21592;DHT22;10958;50.892;3.992;2023-04-25T03:13:10;7.90;99.90
21592;DHT22;10958;50.892;3.992;2023-04-25T03:15:37;8.00;99.90
21592;DHT22;10958;50.892;3.992;2023-04-25T03:18:03;8.00;99.90
21592;DHT22;10958;50.892;3.992;2023-04-25T03:20:29;7.90;99.90
21592;DHT22;10958;50.892;3.992;2023-04-25T03:22:55;7.90;99.90
21592;DHT22;10958;50.892;3.992;2023-04-25T03:25:21;8.00;99.90
21592;DHT22;10958;50.892;3.992;2023-04-25T03:27:47;8.10;99.90
21592;DHT22;10958;50.892;3.992;2023-04-25T03:30:12;8.10;99.90
21592;DHT22;10958;50.892;3.992;2023-04-25T03:32:39;8.00;99.90
21592;DHT22;10958;50.892;3.992;2023-04-25T03:35:05;8.00;99.90
21592;DHT22;10958;50.892;3.992;2023-04-25T03:37:31;8.20;99.90
21592;DHT22;10958;50.892;3.992;2023-04-25T03:39:58;8.10;99.90
21592;DHT22;10958;50.892;3.992;2023-04-25T03:42:24;8.20;99.90
21592;DHT22;10958;50.892;3.992;2023-04-25T03:44:51;8.10;99.90
21592;DHT22;10958;50.892;3.992;2023-04-25T03:47:17;8.20;99.90
21592;DHT22;10958;50.892;3.992;2023-04-25T03:49:43;8.20;99.90
21592;DHT22;10958;50.892;3.992;2023-04-25T03:52:09;8.00;99.90
21592;DHT22;10958;50.892;3.992;2023-04-25T03:54:35;8.10;99.90
21592;DHT22;10958;50.892;3.992;2023-04-25T03:57:01;8.00;99.90
21592;DHT22;10958;50.892;3.992;2023-04-25T03:59:27;7.90;99.90
21592;DHT22;10958;50.892;3.992;2023-04-25T04:01:52;7.90;99.90
21592;DHT22;10958;50.892;3.992;2023-04-25T04:04:18;7.70;99.90
21592;DHT22;10958;50.892;3.992;2023-04-25T04:06:44;7.70;99.90
21592;DHT22;10958;50.892;3.992;2023-04-25T04:09:10;7.70;99.90
21592;DHT22;10958;50.892;3.992;2023-04-25T04:11:38;7.70;99.90
21592;DHT22;10958;50.892;3.992;2023-04-25T04:14:06;7.70;99.90
21592;DHT22;10958;50.892;3.992;2023-04-25T04:16:32;7.60;99.90
21592;DHT22;10958;50.892;3.992;2023-04-25T04:18:58;7.50;99.90
21592;DHT22;10958;50.892;3.992;2023-04-25T04:21:23;7.50;99.90
21592;DHT22;10958;50.892;3.992;2023-04-25T04:23:49;7.60;99.90
21592;DHT22;10958;50.892;3.992;2023-04-25T04:26:17;7.80;99.90
21592;DHT22;10958;50.892;3.992;2023-04-25T04:28:43;7.70;99.90
21592;DHT22;10958;50.892;3.992;2023-04-25T04:31:10;7.70;99.90
21592;DHT22;10958;50.892;3.992;2023-04-25T04:33:36;7.60;99.90
21592;DHT22;10958;50.892;3.992;2023-04-25T04:36:03;7.60;99.90
21592;DHT22;10958;50.892;3.992;2023-04-25T04:38:29;7.80;99.90
21592;DHT22;10958;50.892;3.992;2023-04-25T04:40:55;7.80;99.90
21592;DHT22;10958;50.892;3.992;2023-04-25T04:43:21;7.80;99.90
21592;DHT22;10958;50.892;3.992;2023-04-25T04:45:48;7.80;99.90
21592;DHT22;10958;50.892;3.992;2023-04-25T04:48:15;7.90;99.90
21592;DHT22;10958;50.892;3.992;2023-04-25T04:50:45;7.80;99.90
21592;DHT22;10958;50.892;3.992;2023-04-25T04:53:11;7.80;99.90
21592;DHT22;10958;50.892;3.992;2023-04-25T04:55:37;7.70;99.90
21592;DHT22;10958;50.892;3.992;2023-04-25T04:58:03;7.80;99.90
21592;DHT22;10958;50.892;3.992;2023-04-25T05:00:31;7.90;99.90
21592;DHT22;10958;50.892;3.992;2023-04-25T05:02:57;7.90;99.90
21592;DHT22;10958;50.892;3.992;2023-04-25T05:05:23;7.90;99.90
21592;DHT22;10958;50.892;3.992;2023-04-25T05:07:52;7.80;99.90
21592;DHT22;10958;50.892;3.992;2023-04-25T05:10:18;8.00;99.90
21592;DHT22;10958;50.892;3.992;2023-04-25T05:12:47;8.20;99.90
21592;DHT22;10958;50.892;3.992;2023-04-25T05:15:14;8.10;99.90
21592;DHT22;10958;50.892;3.992;2023-04-25T05:17:39;8.00;99.90
21592;DHT22;10958;50.892;3.992;2023-04-25T05:20:08;7.80;99.90
21592;DHT22;10958;50.892;3.992;2023-04-25T05:22:34;7.60;99.90
21592;DHT22;10958;50.892;3.992;2023-04-25T05:25:00;7.70;99.90
21592;DHT22;10958;50.892;3.992;2023-04-25T05:27:27;7.70;99.90
21592;DHT22;10958;50.892;3.992;2023-04-25T05:29:52;7.80;99.90
21592;DHT22;10958;50.892;3.992;2023-04-25T05:32:18;7.90;99.90
21592;DHT22;10958;50.892;3.992;2023-04-25T05:34:44;7.90;99.90
21592;DHT22;10958;50.892;3.992;2023-04-25T05:37:09;7.90;99.90
21592;DHT22;10958;50.892;3.992;2023-04-25T05:39:35;7.70;99.90
21592;DHT22;10958;50.892;3.992;2023-04-25T05:42:01;7.70;99.90
21592;DHT22;10958;50.892;3.992;2023-04-25T05:44:27;7.80;99.90
21592;DHT22;10958;50.892;3.992;2023-04-25T05:46:53;7.90;99.90
21592;DHT22;10958;50.892;3.992;2023-04-25T05:49:19;7.90;99.90
21592;DHT22;10958;50.892;3.992;2023-04-25T05:51:44;7.90;99.90
21592;DHT22;10958;50.892;3.992;2023-04-25T05:54:19;8.10;99.90
21592;DHT22;10958;50.892;3.992;2023-04-25T05:56:57;8.10;99.90
21592;DHT22;10958;50.892;3.992;2023-04-25T05:59:23;8.10;99.90
21592;DHT22;10958;50.892;3.992;2023-04-25T06:01:48;8.20;99.90
21592;DHT22;10958;50.892;3.992;2023-04-25T06:04:14;8.20;99.90
21592;DHT22;10958;50.892;3.992;2023-04-25T06:06:40;8.30;99.90
21592;DHT22;10958;50.892;3.992;2023-04-25T06:09:06;8.30;99.90
21592;DHT22;10958;50.892;3.992;2023-04-25T06:11:32;8.30;99.90
21592;DHT22;10958;50.892;3.992;2023-04-25T06:13:57;8.40;99.90
21592;DHT22;10958;50.892;3.992;2023-04-25T06:16:23;8.50;99.90
21592;DHT22;10958;50.892;3.992;2023-04-25T06:18:51;8.60;99.90
21592;DHT22;10958;50.892;3.992;2023-04-25T06:21:17;8.60;99.90
21592;DHT22;10958;50.892;3.992;2023-04-25T06:23:42;8.70;99.90
21592;DHT22;10958;50.892;3.992;2023-04-25T06:26:08;8.70;99.90
21592;DHT22;10958;50.892;3.992;2023-04-25T06:28:34;8.60;99.90
21592;DHT22;10958;50.892;3.992;2023-04-25T06:31:00;8.70;99.90
21592;DHT22;10958;50.892;3.992;2023-04-25T06:33:25;8.60;99.90
21592;DHT22;10958;50.892;3.992;2023-04-25T06:35:52;8.60;99.90
21592;DHT22;10958;50.892;3.992;2023-04-25T06:38:18;8.60;99.90
21592;DHT22;10958;50.892;3.992;2023-04-25T06:40:44;8.60;99.90
21592;DHT22;10958;50.892;3.992;2023-04-25T06:43:10;8.60;99.90
21592;DHT22;10958;50.892;3.992;2023-04-25T06:45:36;8.70;99.90
21592;DHT22;10958;50.892;3.992;2023-04-25T06:48:01;8.70;99.90
21592;DHT22;10958;50.892;3.992;2023-04-25T06:50:27;8.80;99.90
21592;DHT22;10958;50.892;3.992;2023-04-25T06:52:55;8.90;99.90
21592;DHT22;10958;50.892;3.992;2023-04-25T06:55:20;8.80;99.90
21592;DHT22;10958;50.892;3.992;2023-04-25T06:57:46;8.90;99.90
21592;DHT22;10958;50.892;3.992;2023-04-25T07:00:12;9.00;99.90
21592;DHT22;10958;50.892;3.992;2023-04-25T07:02:38;9.00;99.90
21592;DHT22;10958;50.892;3.992;2023-04-25T07:05:05;9.10;99.90
21592;DHT22;10958;50.892;3.992;2023-04-25T07:07:31;9.10;99.90
21592;DHT22;10958;50.892;3.992;2023-04-25T07:09:56;9.20;99.90
21592;DHT22;10958;50.892;3.992;2023-04-25T07:12:22;9.40;99.90
21592;DHT22;10958;50.892;3.992;2023-04-25T07:14:48;9.50;99.90
21592;DHT22;10958;50.892;3.992;2023-04-25T07:17:16;9.70;99.90
21592;DHT22;10958;50.892;3.992;2023-04-25T07:19:41;9.90;99.90
21592;DHT22;10958;50.892;3.992;2023-04-25T07:22:07;10.20;99.90
21592;DHT22;10958;50.892;3.992;2023-04-25T07:24:33;10.30;99.90
21592;DHT22;10958;50.892;3.992;2023-04-25T07:27:02;10.60;99.90
21592;DHT22;10958;50.892;3.992;2023-04-25T07:29:35;10.70;99.90
21592;DHT22;10958;50.892;3.992;2023-04-25T07:32:08;10.80;99.90
21592;DHT22;10958;50.892;3.992;2023-04-25T07:34:35;10.80;99.90
21592;DHT22;10958;50.892;3.992;2023-04-25T07:37:02;10.70;99.90
21592;DHT22;10958;50.892;3.992;2023-04-25T07:39:29;10.60;99.90
21592;DHT22;10958;50.892;3.992;2023-04-25T07:41:55;10.50;99.90
21592;DHT22;10958;50.892;3.992;2023-04-25T07:44:32;10.60;99.90
21592;DHT22;10958;50.892;3.992;2023-04-25T07:47:17;10.60;99.90
21592;DHT22;10958;50.892;3.992;2023-04-25T07:49:46;10.50;99.90
21592;DHT22;10958;50.892;3.992;2023-04-25T07:52:13;10.60;99.90
21592;DHT22;10958;50.892;3.992;2023-04-25T07:54:38;10.70;99.90
21592;DHT22;10958;50.892;3.992;2023-04-25T07:57:04;10.70;99.90
21592;DHT22;10958;50.892;3.992;2023-04-25T07:59:32;11.00;99.90
21592;DHT22;10958;50.892;3.992;2023-04-25T08:01:58;10.70;99.90
21592;DHT22;10958;50.892;3.992;2023-04-25T08:04:24;10.50;99.90
21592;DHT22;10958;50.892;3.992;2023-04-25T08:06:51;10.90;99.90
21592;DHT22;10958;50.892;3.992;2023-04-25T08:09:17;11.40;99.90
21592;DHT22;10958;50.892;3.992;2023-04-25T08:11:43;12.20;99.90
21592;DHT22;10958;50.892;3.992;2023-04-25T08:14:09;13.30;99.90
21592;DHT22;10958;50.892;3.992;2023-04-25T08:16:35;13.70;99.90
21592;DHT22;10958;50.892;3.992;2023-04-25T08:19:01;13.60;99.90
21592;DHT22;10958;50.892;3.992;2023-04-25T08:21:29;13.80;99.90
21592;DHT22;10958;50.892;3.992;2023-04-25T08:23:54;14.30;99.90
21592;DHT22;10958;50.892;3.992;2023-04-25T08:26:23;15.00;99.90
21592;DHT22;10958;50.892;3.992;2023-04-25T08:28:51;14.40;99.90
21592;DHT22;10958;50.892;3.992;2023-04-25T08:31:20;13.90;99.90
21592;DHT22;10958;50.892;3.992;2023-04-25T08:33:48;13.10;99.90
21592;DHT22;10958;50.892;3.992;2023-04-25T08:36:15;12.40;99.90
21592;DHT22;10958;50.892;3.992;2023-04-25T08:38:40;11.70;99.90
21592;DHT22;10958;50.892;3.992;2023-04-25T08:41:06;11.60;99.90
21592;DHT22;10958;50.892;3.992;2023-04-25T08:44:26;11.70;99.90
21592;DHT22;10958;50.892;3.992;2023-04-25T08:46:33;11.50;99.90
21592;DHT22;10958;50.892;3.992;2023-04-25T08:49:04;11.10;99.90
21592;DHT22;10958;50.892;3.992;2023-04-25T08:51:44;11.00;99.90
21592;DHT22;10958;50.892;3.992;2023-04-25T08:54:19;11.30;99.90
21592;DHT22;10958;50.892;3.992;2023-04-25T08:56:47;11.20;99.90
21592;DHT22;10958;50.892;3.992;2023-04-25T08:59:13;11.20;99.90
21592;DHT22;10958;50.892;3.992;2023-04-25T09:01:40;11.50;99.90
21592;DHT22;10958;50.892;3.992;2023-04-25T09:04:06;12.40;99.90
21592;DHT22;10958;50.892;3.992;2023-04-25T09:06:32;13.70;99.90
21592;DHT22;10958;50.892;3.992;2023-04-25T09:09:04;14.50;99.90
21592;DHT22;10958;50.892;3.992;2023-04-25T09:11:41;15.10;99.90
21592;DHT22;10958;50.892;3.992;2023-04-25T09:17:24;15.70;99.90
21592;DHT22;10958;50.892;3.992;2023-04-25T09:19:58;15.60;99.90
21592;DHT22;10958;50.892;3.992;2023-04-25T09:22:38;16.20;99.90
21592;DHT22;10958;50.892;3.992;2023-04-25T09:25:11;16.10;99.90
21592;DHT22;10958;50.892;3.992;2023-04-25T09:27:57;15.20;99.90
21592;DHT22;10958;50.892;3.992;2023-04-25T09:30:30;15.10;99.90
21592;DHT22;10958;50.892;3.992;2023-04-25T09:33:03;15.50;99.90
21592;DHT22;10958;50.892;3.992;2023-04-25T09:35:29;15.90;99.90
21592;DHT22;10958;50.892;3.992;2023-04-25T09:37:55;15.70;99.90
21592;DHT22;10958;50.892;3.992;2023-04-25T09:40:21;16.40;99.90
21592;DHT22;10958;50.892;3.992;2023-04-25T09:42:47;16.60;99.90
21592;DHT22;10958;50.892;3.992;2023-04-25T09:45:13;16.30;99.90
21592;DHT22;10958;50.892;3.992;2023-04-25T09:47:40;16.90;99.90
21592;DHT22;10958;50.892;3.992;2023-04-25T09:50:14;17.40;99.90
21592;DHT22;10958;50.892;3.992;2023-04-25T09:52:43;17.60;99.90
21592;DHT22;10958;50.892;3.992;2023-04-25T09:55:08;18.30;99.90
21592;DHT22;10958;50.892;3.992;2023-04-25T09:57:36;17.10;99.90
21592;DHT22;10958;50.892;3.992;2023-04-25T10:00:06;16.20;99.90
21592;DHT22;10958;50.892;3.992;2023-04-25T10:02:36;16.00;99.90
21592;DHT22;10958;50.892;3.992;2023-04-25T10:05:06;15.30;99.90
21592;DHT22;10958;50.892;3.992;2023-04-25T10:07:33;14.30;99.90
21592;DHT22;10958;50.892;3.992;2023-04-25T10:10:04;13.90;99.90
21592;DHT22;10958;50.892;3.992;2023-04-25T10:12:32;13.70;99.90
21592;DHT22;10958;50.892;3.992;2023-04-25T10:14:59;12.80;99.90
21592;DHT22;10958;50.892;3.992;2023-04-25T10:17:26;12.20;99.90
21592;DHT22;10958;50.892;3.992;2023-04-25T10:19:54;11.90;99.90
21592;DHT22;10958;50.892;3.992;2023-04-25T10:22:30;12.00;99.90
21592;DHT22;10958;50.892;3.992;2023-04-25T10:25:01;12.00;99.90
21592;DHT22;10958;50.892;3.992;2023-04-25T10:27:30;11.70;99.90
21592;DHT22;10958;50.892;3.992;2023-04-25T10:30:10;11.20;99.90
21592;DHT22;10958;50.892;3.992;2023-04-25T10:32:41;10.70;99.90
21592;DHT22;10958;50.892;3.992;2023-04-25T10:35:17;10.90;99.90
21592;DHT22;10958;50.892;3.992;2023-04-25T10:38:09;11.00;99.90
21592;DHT22;10958;50.892;3.992;2023-04-25T10:40:38;10.90;99.90
21592;DHT22;10958;50.892;3.992;2023-04-25T10:45:59;11.60;99.90
21592;DHT22;10958;50.892;3.992;2023-04-25T10:48:26;11.40;99.90
21592;DHT22;10958;50.892;3.992;2023-04-25T10:51:11;11.30;99.90
21592;DHT22;10958;50.892;3.992;2023-04-25T10:53:37;11.50;99.90
21592;DHT22;10958;50.892;3.992;2023-04-25T10:58:36;12.10;99.90
21592;DHT22;10958;50.892;3.992;2023-04-25T11:01:05;12.70;99.90
21592;DHT22;10958;50.892;3.992;2023-04-25T11:03:39;12.80;99.90
21592;DHT22;10958;50.892;3.992;2023-04-25T11:08:48;13.00;99.90
21592;DHT22;10958;50.892;3.992;2023-04-25T11:11:18;12.90;99.90
21592;DHT22;10958;50.892;3.992;2023-04-25T11:13:48;13.00;99.90
21592;DHT22;10958;50.892;3.992;2023-04-25T11:16:17;13.00;99.90
21592;DHT22;10958;50.892;3.992;2023-04-25T11:18:43;12.50;99.90
21592;DHT22;10958;50.892;3.992;2023-04-25T11:21:11;12.30;99.90
21592;DHT22;10958;50.892;3.992;2023-04-25T11:23:39;12.40;99.90
21592;DHT22;10958;50.892;3.992;2023-04-25T11:26:07;12.20;99.90
21592;DHT22;10958;50.892;3.992;2023-04-25T11:28:33;12.20;99.90
21592;DHT22;10958;50.892;3.992;2023-04-25T11:30:59;12.50;99.90
21592;DHT22;10958;50.892;3.992;2023-04-25T11:33:26;12.40;99.90
21592;DHT22;10958;50.892;3.992;2023-04-25T11:35:55;12.40;99.90
21592;DHT22;10958;50.892;3.992;2023-04-25T11:38:22;12.50;99.90
21592;DHT22;10958;50.892;3.992;2023-04-25T11:40:54;12.50;99.90
21592;DHT22;10958;50.892;3.992;2023-04-25T11:43:21;12.50;99.90
21592;DHT22;10958;50.892;3.992;2023-04-25T11:45:49;12.60;99.90
21592;DHT22;10958;50.892;3.992;2023-04-25T11:48:16;12.40;99.90
21592;DHT22;10958;50.892;3.992;2023-04-25T11:50:42;12.40;99.90
21592;DHT22;10958;50.892;3.992;2023-04-25T11:53:10;12.60;99.90
21592;DHT22;10958;50.892;3.992;2023-04-25T11:55:36;12.70;99.90
21592;DHT22;10958;50.892;3.992;2023-04-25T11:58:04;12.90;99.90
21592;DHT22;10958;50.892;3.992;2023-04-25T12:00:30;13.20;99.90
21592;DHT22;10958;50.892;3.992;2023-04-25T12:02:57;13.30;99.90
21592;DHT22;10958;50.892;3.992;2023-04-25T12:08:18;12.90;99.90
21592;DHT22;10958;50.892;3.992;2023-04-25T12:10:45;12.80;99.90
21592;DHT22;10958;50.892;3.992;2023-04-25T12:13:25;12.60;99.90
21592;DHT22;10958;50.892;3.992;2023-04-25T12:15:51;12.80;99.90
21592;DHT22;10958;50.892;3.992;2023-04-25T12:18:25;12.70;99.90
21592;DHT22;10958;50.892;3.992;2023-04-25T12:20:54;12.80;99.90
21592;DHT22;10958;50.892;3.992;2023-04-25T12:23:27;12.70;99.90
21592;DHT22;10958;50.892;3.992;2023-04-25T12:25:53;12.60;99.90
21592;DHT22;10958;50.892;3.992;2023-04-25T12:28:20;12.60;99.90
21592;DHT22;10958;50.892;3.992;2023-04-25T12:31:04;12.40;99.90
21592;DHT22;10958;50.892;3.992;2023-04-25T12:33:32;12.40;99.90
21592;DHT22;10958;50.892;3.992;2023-04-25T12:35:58;12.50;99.90
21592;DHT22;10958;50.892;3.992;2023-04-25T12:38:27;12.80;99.90
21592;DHT22;10958;50.892;3.992;2023-04-25T12:40:54;13.10;99.90
21592;DHT22;10958;50.892;3.992;2023-04-25T12:43:20;13.20;99.90
21592;DHT22;10958;50.892;3.992;2023-04-25T12:45:52;13.10;99.90
21592;DHT22;10958;50.892;3.992;2023-04-25T12:48:18;13.20;99.90
21592;DHT22;10958;50.892;3.992;2023-04-25T12:50:44;13.30;99.90
21592;DHT22;10958;50.892;3.992;2023-04-25T12:53:10;13.40;99.90
21592;DHT22;10958;50.892;3.992;2023-04-25T12:55:37;13.50;99.90
21592;DHT22;10958;50.892;3.992;2023-04-25T12:58:05;13.40;99.90
21592;DHT22;10958;50.892;3.992;2023-04-25T13:00:31;13.30;99.90
21592;DHT22;10958;50.892;3.992;2023-04-25T13:02:57;13.50;99.90
21592;DHT22;10958;50.892;3.992;2023-04-25T13:05:22;13.60;99.90
21592;DHT22;10958;50.892;3.992;2023-04-25T13:07:49;13.50;99.90
21592;DHT22;10958;50.892;3.992;2023-04-25T13:10:14;13.30;99.90
21592;DHT22;10958;50.892;3.992;2023-04-25T13:12:40;13.20;99.90
21592;DHT22;10958;50.892;3.992;2023-04-25T13:15:07;13.20;99.90
21592;DHT22;10958;50.892;3.992;2023-04-25T13:17:34;13.30;99.90
21592;DHT22;10958;50.892;3.992;2023-04-25T13:20:00;13.10;99.90
21592;DHT22;10958;50.892;3.992;2023-04-25T13:22:25;13.10;99.90
21592;DHT22;10958;50.892;3.992;2023-04-25T13:24:51;13.10;99.90
21592;DHT22;10958;50.892;3.992;2023-04-25T13:27:17;13.20;99.90
21592;DHT22;10958;50.892;3.992;2023-04-25T13:29:42;13.10;99.90
21592;DHT22;10958;50.892;3.992;2023-04-25T13:32:09;13.20;99.90
21592;DHT22;10958;50.892;3.992;2023-04-25T13:34:35;13.10;99.90
21592;DHT22;10958;50.892;3.992;2023-04-25T13:37:00;13.10;99.90
21592;DHT22;10958;50.892;3.992;2023-04-25T13:39:26;13.10;99.90
21592;DHT22;10958;50.892;3.992;2023-04-25T13:41:52;13.20;99.90
21592;DHT22;10958;50.892;3.992;2023-04-25T13:44:17;13.20;99.90
21592;DHT22;10958;50.892;3.992;2023-04-25T13:49:19;13.10;99.90
21592;DHT22;10958;50.892;3.992;2023-04-25T13:51:45;12.80;99.90
21592;DHT22;10958;50.892;3.992;2023-04-25T13:54:11;12.60;99.90
21592;DHT22;10958;50.892;3.992;2023-04-25T13:56:36;12.40;99.90
21592;DHT22;10958;50.892;3.992;2023-04-25T13:59:02;12.60;99.90
21592;DHT22;10958;50.892;3.992;2023-04-25T14:01:28;12.90;99.90
21592;DHT22;10958;50.892;3.992;2023-04-25T14:03:57;13.10;99.90
21592;DHT22;10958;50.892;3.992;2023-04-25T14:06:23;13.00;99.90
21592;DHT22;10958;50.892;3.992;2023-04-25T14:08:53;12.90;99.90
21592;DHT22;10958;50.892;3.992;2023-04-25T14:11:18;12.70;99.90
21592;DHT22;10958;50.892;3.992;2023-04-25T14:13:45;12.60;99.90
21592;DHT22;10958;50.892;3.992;2023-04-25T14:16:10;12.40;99.90
21592;DHT22;10958;50.892;3.992;2023-04-25T14:18:36;12.30;99.90
21592;DHT22;10958;50.892;3.992;2023-04-25T14:21:02;12.30;99.90
21592;DHT22;10958;50.892;3.992;2023-04-25T14:23:28;12.50;99.90
21592;DHT22;10958;50.892;3.992;2023-04-25T14:25:54;12.70;99.90
21592;DHT22;10958;50.892;3.992;2023-04-25T14:28:19;12.80;99.90
21592;DHT22;10958;50.892;3.992;2023-04-25T14:30:45;12.80;99.90
21592;DHT22;10958;50.892;3.992;2023-04-25T14:33:11;12.70;99.90
21592;DHT22;10958;50.892;3.992;2023-04-25T14:35:37;12.70;99.90
21592;DHT22;10958;50.892;3.992;2023-04-25T14:38:05;12.70;99.90
21592;DHT22;10958;50.892;3.992;2023-04-25T14:40:31;13.10;99.90
21592;DHT22;10958;50.892;3.992;2023-04-25T14:42:56;13.10;99.90
21592;DHT22;10958;50.892;3.992;2023-04-25T14:45:22;13.10;99.90
21592;DHT22;10958;50.892;3.992;2023-04-25T14:47:48;13.10;99.90
21592;DHT22;10958;50.892;3.992;2023-04-25T14:50:14;12.90;99.90
21592;DHT22;10958;50.892;3.992;2023-04-25T14:52:40;12.90;99.90
21592;DHT22;10958;50.892;3.992;2023-04-25T14:55:05;12.90;99.90
21592;DHT22;10958;50.892;3.992;2023-04-25T14:57:33;12.60;99.90
21592;DHT22;10958;50.892;3.992;2023-04-25T14:59:59;12.50;99.90
21592;DHT22;10958;50.892;3.992;2023-04-25T15:02:25;12.50;99.90
21592;DHT22;10958;50.892;3.992;2023-04-25T15:04:52;12.60;99.90
21592;DHT22;10958;50.892;3.992;2023-04-25T15:07:20;12.70;99.90
21592;DHT22;10958;50.892;3.992;2023-04-25T15:09:47;12.70;99.90
21592;DHT22;10958;50.892;3.992;2023-04-25T15:12:13;12.70;99.90
21592;DHT22;10958;50.892;3.992;2023-04-25T15:14:39;12.50;99.90
21592;DHT22;10958;50.892;3.992;2023-04-25T15:17:05;12.50;99.90
21592;DHT22;10958;50.892;3.992;2023-04-25T15:19:31;12.50;99.90
21592;DHT22;10958;50.892;3.992;2023-04-25T15:21:57;12.20;99.90
21592;DHT22;10958;50.892;3.992;2023-04-25T15:24:26;12.00;99.90
21592;DHT22;10958;50.892;3.992;2023-04-25T15:26:52;11.90;99.90
21592;DHT22;10958;50.892;3.992;2023-04-25T15:29:17;11.90;99.90
21592;DHT22;10958;50.892;3.992;2023-04-25T15:31:43;12.10;99.90
21592;DHT22;10958;50.892;3.992;2023-04-25T15:34:09;12.20;99.90
21592;DHT22;10958;50.892;3.992;2023-04-25T15:36:34;12.40;99.90
21592;DHT22;10958;50.892;3.992;2023-04-25T15:39:00;12.50;99.90
21592;DHT22;10958;50.892;3.992;2023-04-25T15:41:26;12.40;99.90
21592;DHT22;10958;50.892;3.992;2023-04-25T15:43:52;12.50;99.90
21592;DHT22;10958;50.892;3.992;2023-04-25T15:46:19;12.40;99.90
21592;DHT22;10958;50.892;3.992;2023-04-25T15:48:46;12.50;99.90
21592;DHT22;10958;50.892;3.992;2023-04-25T15:51:12;12.50;99.90
21592;DHT22;10958;50.892;3.992;2023-04-25T15:53:38;12.50;99.90
21592;DHT22;10958;50.892;3.992;2023-04-25T15:56:04;12.50;99.90
21592;DHT22;10958;50.892;3.992;2023-04-25T15:58:30;12.20;99.90